Time;durP1;ratioP1;P1;durP2;ratioP2;P2;SDS_P1;SDS_P2;PMS_P1;PMS_P2;Temp;Humidity;BMP_temperature;BMP_pressure;BME280_temperature;BME280_humidity;BME280_pressure;Samples;Min_cycle;Max_cycle;Signal;HPM_P1;HPM_P2
2022/08/26 00:00:02;;;;;;;5.47;2.57;;;26.90;99.90;;;;;;1046543;28;20021;-73
2022/08/26 00:00:33;;;;;;;2.47;1.70;;;26.90;99.90;;;;;;1043921;28;20029;-73
2022/08/26 00:01:04;;;;;;;4.03;2.23;;;26.90;99.90;;;;;;1046416;28;20024;-73
2022/08/26 00:01:35;;;;;;;4.27;2.53;;;26.90;99.90;;;;;;1046172;28;20048;-73
2022/08/26 00:02:06;;;;;;;4.00;2.43;;;26.90;99.90;;;;;;1046617;28;20066;-73
2022/08/26 00:02:36;;;;;;;4.87;2.50;;;26.90;99.90;;;;;;1046434;28;20086;-73
2022/08/26 00:03:07;;;;;;;6.53;2.00;;;26.90;99.90;;;;;;1046861;28;20016;-73
2022/08/26 00:03:38;;;;;;;4.50;2.30;;;26.90;99.90;;;;;;1046647;28;20528;-72
2022/08/26 00:04:09;;;;;;;3.70;2.35;;;26.90;99.90;;;;;;1046476;28;20020;-74
2022/08/26 00:04:40;;;;;;;4.38;2.33;;;26.90;99.90;;;;;;1044211;28;20017;-73
2022/08/26 00:05:10;;;;;;;3.97;2.33;;;26.90;99.90;;;;;;1042805;28;20024;-73
2022/08/26 00:05:42;;;;;;;3.97;2.70;;;26.90;99.90;;;;;;1045155;28;20032;-73
2022/08/26 00:06:13;;;;;;;2.63;2.03;;;26.90;99.90;;;;;;1046694;28;20570;-74
2022/08/26 00:06:44;;;;;;;2.97;1.70;;;26.90;99.90;;;;;;1046736;28;20783;-74
2022/08/26 00:07:14;;;;;;;2.63;2.07;;;26.90;99.90;;;;;;1044525;28;20474;-73
2022/08/26 00:07:45;;;;;;;4.70;2.37;;;26.90;99.90;;;;;;1042686;28;20071;-74
2022/08/26 00:08:18;;;;;;;4.00;2.42;;;26.90;99.90;;;;;;1046528;28;20677;-74
2022/08/26 00:08:49;;;;;;;3.88;2.25;;;26.90;99.90;;;;;;1047719;28;20027;-73
2022/08/26 00:09:20;;;;;;;4.07;2.47;;;26.90;99.90;;;;;;1050877;28;20028;-73
2022/08/26 00:09:51;;;;;;;3.72;2.00;;;26.90;99.90;;;;;;1047262;28;20033;-73
2022/08/26 00:10:22;;;;;;;2.53;2.00;;;26.90;99.90;;;;;;1042755;28;20029;-72
2022/08/26 00:10:53;;;;;;;3.03;2.10;;;26.90;99.90;;;;;;1046946;28;20025;-73
2022/08/26 00:11:23;;;;;;;4.00;2.23;;;26.90;99.90;;;;;;1044960;28;20067;-73
2022/08/26 00:11:54;;;;;;;3.77;2.00;;;26.90;99.90;;;;;;1042463;28;20133;-72
2022/08/26 00:12:24;;;;;;;3.90;2.20;;;26.90;99.90;;;;;;1045658;28;20082;-74
2022/08/26 00:12:55;;;;;;;3.57;2.10;;;26.90;99.90;;;;;;1046517;28;20380;-74
2022/08/26 00:13:26;;;;;;;3.33;2.50;;;26.90;99.90;;;;;;1046946;28;20352;-72
2022/08/26 00:13:56;;;;;;;3.30;1.63;;;26.90;99.90;;;;;;1046916;28;20016;-72
2022/08/26 00:14:27;;;;;;;3.90;2.17;;;26.90;99.90;;;;;;1047023;28;20062;-73
2022/08/26 00:14:58;;;;;;;3.07;2.00;;;26.90;99.90;;;;;;1045479;28;20101;-72
2022/08/26 00:15:29;;;;;;;5.17;2.53;;;26.90;99.90;;;;;;1046754;28;20059;-72
2022/08/26 00:15:59;;;;;;;3.63;1.90;;;26.90;99.90;;;;;;1047027;28;20099;-72
2022/08/26 00:16:30;;;;;;;4.27;2.13;;;26.90;99.90;;;;;;1045306;28;20020;-73
2022/08/26 00:17:00;;;;;;;4.27;2.17;;;26.90;99.90;;;;;;1042555;28;20021;-73
2022/08/26 00:17:31;;;;;;;4.03;2.17;;;26.90;99.90;;;;;;1046466;28;20021;-74
2022/08/26 00:18:02;;;;;;;3.30;2.07;;;26.90;99.90;;;;;;1042584;28;20408;-72
2022/08/26 00:18:33;;;;;;;3.90;2.13;;;26.90;99.90;;;;;;1042655;28;20062;-73
2022/08/26 00:19:03;;;;;;;3.37;1.87;;;26.80;99.90;;;;;;1045928;28;20699;-73
2022/08/26 00:19:34;;;;;;;3.73;2.23;;;26.90;99.90;;;;;;1046477;28;20009;-72
2022/08/26 00:20:06;;;;;;;4.20;2.00;;;26.90;99.90;;;;;;1044003;28;20043;-74
2022/08/26 00:20:38;;;;;;;4.38;2.58;;;26.90;99.90;;;;;;1040985;28;20465;-73
2022/08/26 00:21:09;;;;;;;3.53;2.03;;;26.80;99.90;;;;;;1042584;28;20060;-73
2022/08/26 00:21:40;;;;;;;3.85;2.20;;;26.80;99.90;;;;;;1040270;28;20036;-72
2022/08/26 00:22:11;;;;;;;4.63;2.23;;;26.80;99.90;;;;;;1040418;28;20037;-72
2022/08/26 00:22:42;;;;;;;3.70;2.27;;;26.80;99.90;;;;;;1046734;28;20464;-72
2022/08/26 00:23:12;;;;;;;5.03;2.15;;;26.80;99.90;;;;;;1041776;28;20079;-71
2022/08/26 00:23:43;;;;;;;4.90;2.20;;;26.80;99.90;;;;;;1034639;28;20052;-73
2022/08/26 00:24:14;;;;;;;3.93;1.80;;;26.80;99.90;;;;;;1038667;28;20018;-74
2022/08/26 00:24:44;;;;;;;4.63;2.30;;;26.80;99.90;;;;;;1046702;28;20788;-73
2022/08/26 00:25:15;;;;;;;3.17;2.00;;;26.80;99.90;;;;;;1047136;28;20074;-73
2022/08/26 00:25:46;;;;;;;3.90;2.33;;;26.80;99.90;;;;;;1050115;28;20111;-72
2022/08/26 00:26:17;;;;;;;3.63;2.30;;;26.80;99.90;;;;;;1046412;28;20013;-73
2022/08/26 00:26:48;;;;;;;4.63;2.10;;;26.80;99.90;;;;;;1042569;28;20020;-74
2022/08/26 00:27:19;;;;;;;3.92;1.95;;;26.80;99.90;;;;;;1042697;28;20013;-73
2022/08/26 00:27:50;;;;;;;3.17;1.73;;;26.80;99.90;;;;;;1046494;28;20020;-71
2022/08/26 00:28:21;;;;;;;3.58;1.95;;;26.80;99.90;;;;;;1045988;28;20004;-72
2022/08/26 00:28:51;;;;;;;3.73;1.93;;;26.80;99.90;;;;;;1042361;28;20013;-72
2022/08/26 00:29:22;;;;;;;3.53;1.87;;;26.80;99.90;;;;;;1042397;28;20606;-73
2022/08/26 00:29:52;;;;;;;2.77;1.90;;;26.80;99.90;;;;;;1042469;28;20023;-73
2022/08/26 00:30:25;;;;;;;1.90;1.73;;;26.80;99.90;;;;;;1038596;28;20021;-73
2022/08/26 00:30:56;;;;;;;3.90;1.92;;;26.80;99.90;;;;;;1045893;28;20071;-73
2022/08/26 00:31:27;;;;;;;3.43;2.10;;;26.80;99.90;;;;;;1046947;28;20008;-73
2022/08/26 00:31:57;;;;;;;4.35;2.20;;;26.80;99.90;;;;;;1047471;28;20017;-73
2022/08/26 00:32:28;;;;;;;3.37;1.60;;;26.80;99.90;;;;;;1047760;28;20057;-71
2022/08/26 00:33:01;;;;;;;3.53;2.00;;;26.80;99.90;;;;;;1047819;28;20145;-73
2022/08/26 00:33:31;;;;;;;4.00;1.95;;;26.80;99.90;;;;;;1047618;28;20017;-74
2022/08/26 00:34:02;;;;;;;4.93;2.10;;;26.80;99.90;;;;;;1047072;28;20062;-73
2022/08/26 00:34:33;;;;;;;1.87;1.43;;;26.80;99.90;;;;;;1047320;28;20025;-73
2022/08/26 00:35:05;;;;;;;3.55;2.33;;;26.80;99.90;;;;;;1047477;28;20020;-72
2022/08/26 00:35:35;;;;;;;2.95;2.03;;;26.80;99.90;;;;;;1046477;28;20020;-73
2022/08/26 00:36:06;;;;;;;4.53;2.27;;;26.80;99.90;;;;;;1043197;28;20155;-73
2022/08/26 00:36:38;;;;;;;4.50;1.83;;;26.80;99.90;;;;;;1043174;28;20057;-74
2022/08/26 00:37:09;;;;;;;4.43;2.47;;;26.80;99.90;;;;;;1043545;28;20021;-73
2022/08/26 00:37:41;;;;;;;5.03;2.50;;;26.70;99.90;;;;;;1047148;28;20028;-73
2022/08/26 00:38:12;;;;;;;2.72;2.05;;;26.70;99.90;;;;;;1047247;28;20127;-74
2022/08/26 00:38:42;;;;;;;3.10;1.83;;;26.70;99.90;;;;;;1043622;28;20549;-73
2022/08/26 00:39:13;;;;;;;4.40;1.97;;;26.70;99.90;;;;;;1047142;28;20318;-74
2022/08/26 00:39:44;;;;;;;2.93;2.07;;;26.70;99.90;;;;;;1048628;28;20021;-73
2022/08/26 00:40:19;;;;;;;3.07;1.77;;;26.70;99.90;;;;;;1047446;28;20013;-72
2022/08/26 00:40:55;;;;;;;3.40;2.08;;;26.70;99.90;;;;;;1048656;28;20098;-73
2022/08/26 00:41:25;;;;;;;3.53;2.33;;;26.70;99.90;;;;;;1041635;28;20036;-72
2022/08/26 00:41:56;;;;;;;4.67;1.80;;;26.70;99.90;;;;;;1039186;28;20048;-73
2022/08/26 00:42:27;;;;;;;4.97;1.63;;;26.70;99.90;;;;;;1045754;28;20416;-73
2022/08/26 00:42:58;;;;;;;3.53;2.07;;;26.70;99.90;;;;;;1047506;28;20285;-73
2022/08/26 00:43:32;;;;;;;2.70;1.70;;;26.70;99.90;;;;;;1047220;28;20016;-74
2022/08/26 00:44:03;;;;;;;2.08;1.65;;;26.70;99.90;;;;;;1044889;28;20519;-74
2022/08/26 00:44:34;;;;;;;2.85;1.50;;;26.70;99.90;;;;;;1042990;28;20099;-74
2022/08/26 00:45:05;;;;;;;2.83;1.80;;;26.70;99.90;;;;;;1039964;28;20079;-74
2022/08/26 00:45:55;;;;;;;4.47;1.45;;;26.70;99.90;;;;;;1042383;28;20208;-73
2022/08/26 00:46:30;;;;;;;5.43;2.28;;;26.70;99.90;;;;;;1043387;28;20021;-74
2022/08/26 00:47:06;;;;;;;2.13;1.70;;;26.70;99.90;;;;;;1043507;28;20302;-73
2022/08/26 00:47:44;;;;;;;2.58;1.75;;;26.70;99.90;;;;;;1045331;28;20048;-74
2022/08/26 00:48:18;;;;;;;3.38;1.70;;;26.70;99.90;;;;;;1047821;28;20371;-73
2022/08/26 00:48:58;;;;;;;3.67;1.80;;;26.70;99.90;;;;;;1046775;28;20021;-74
2022/08/26 00:49:39;;;;;;;2.40;1.70;;;26.70;99.90;;;;;;1043546;28;20017;-72
2022/08/26 00:50:14;;;;;;;3.15;2.03;;;26.70;99.90;;;;;;1043602;28;20024;-74
2022/08/26 00:51:13;;;;;;;4.03;2.00;;;26.70;99.90;;;;;;1046756;28;20016;-73
2022/08/26 00:51:52;;;;;;;4.82;2.15;;;26.70;99.90;;;;;;1043685;28;20369;-73
2022/08/26 00:52:23;;;;;;;2.78;1.90;;;26.70;99.90;;;;;;1046181;28;21198;-73
2022/08/26 00:52:54;;;;;;;2.93;1.67;;;26.70;99.90;;;;;;1047712;28;20516;-74
2022/08/26 00:53:29;;;;;;;5.10;2.33;;;26.70;99.90;;;;;;1043623;28;20013;-73
2022/08/26 00:54:06;;;;;;;3.85;1.90;;;26.70;99.90;;;;;;1043623;28;20017;-75
2022/08/26 00:54:45;;;;;;;2.55;2.17;;;26.70;99.90;;;;;;1044357;28;20020;-72
2022/08/26 00:55:37;;;;;;;2.03;1.65;;;26.70;99.90;;;;;;1047456;28;20013;-73
2022/08/26 00:56:33;;;;;;;3.25;1.67;;;26.70;99.90;;;;;;1043512;28;20020;-73
2022/08/26 00:57:08;;;;;;;3.35;1.60;;;26.70;99.90;;;;;;1043487;28;20017;-72
2022/08/26 00:57:39;;;;;;;2.15;1.50;;;26.70;99.90;;;;;;1046992;28;20009;-74
2022/08/26 00:58:10;;;;;;;2.85;1.65;;;26.70;99.90;;;;;;1043156;28;20017;-74
2022/08/26 00:58:41;;;;;;;3.27;1.70;;;26.70;99.90;;;;;;1039857;28;20112;-73
2022/08/26 00:59:13;;;;;;;3.67;1.80;;;26.70;99.90;;;;;;1047408;28;20043;-73
2022/08/26 00:59:47;;;;;;;2.10;1.60;;;26.70;99.90;;;;;;1042882;28;20103;-74
2022/08/26 01:00:25;;;;;;;3.15;1.80;;;26.70;99.90;;;;;;1048042;28;20479;-74
2022/08/26 01:00:56;;;;;;;3.55;2.00;;;26.70;99.90;;;;;;1043162;28;20036;-73
2022/08/26 01:01:27;;;;;;;3.87;1.90;;;26.70;99.90;;;;;;1044437;28;20400;-73
2022/08/26 01:01:57;;;;;;;3.07;1.97;;;26.70;99.90;;;;;;1046063;28;20046;-73
2022/08/26 01:02:28;;;;;;;2.80;1.60;;;26.70;99.90;;;;;;1046843;28;20021;-73
2022/08/26 01:03:01;;;;;;;1.73;1.60;;;26.70;99.90;;;;;;1040886;28;20017;-73
2022/08/26 01:03:33;;;;;;;2.42;1.63;;;26.70;99.90;;;;;;1035186;28;20634;-73
2022/08/26 01:04:04;;;;;;;2.60;1.33;;;26.70;99.90;;;;;;1039420;28;20528;-73
2022/08/26 01:04:36;;;;;;;2.92;1.70;;;26.70;99.90;;;;;;1042972;28;20024;-73
2022/08/26 01:05:10;;;;;;;2.70;1.55;;;26.70;99.90;;;;;;1043916;28;20028;-74
2022/08/26 01:05:41;;;;;;;3.97;1.50;;;26.70;99.90;;;;;;1054643;27;20020;-73
2022/08/26 01:06:13;;;;;;;3.47;1.92;;;26.70;99.90;;;;;;1059119;27;20015;-73
2022/08/26 01:06:45;;;;;;;3.88;2.47;;;26.70;99.90;;;;;;1055583;28;20008;-72
2022/08/26 01:07:15;;;;;;;4.45;2.00;;;26.70;99.90;;;;;;1053001;28;20016;-74
2022/08/26 01:07:46;;;;;;;2.27;1.67;;;26.70;99.90;;;;;;1051279;28;20052;-74
2022/08/26 01:08:17;;;;;;;3.97;2.03;;;26.70;99.90;;;;;;1049645;28;20103;-74
2022/08/26 01:08:47;;;;;;;2.47;1.60;;;26.70;99.90;;;;;;1051385;28;20066;-73
2022/08/26 01:09:20;;;;;;;2.23;1.40;;;26.70;99.90;;;;;;1051695;28;20012;-75
2022/08/26 01:09:50;;;;;;;3.85;1.80;;;26.70;99.90;;;;;;1048869;28;20019;-72
2022/08/26 01:10:24;;;;;;;2.63;1.53;;;26.70;99.90;;;;;;1048057;28;20017;-74
2022/08/26 01:10:57;;;;;;;2.50;1.67;;;26.70;99.90;;;;;;1051310;28;20027;-74
2022/08/26 01:11:28;;;;;;;2.47;1.60;;;26.70;99.90;;;;;;1049152;28;20012;-74
2022/08/26 01:12:01;;;;;;;3.00;1.73;;;26.70;99.90;;;;;;1048742;28;20074;-72
2022/08/26 01:12:37;;;;;;;2.67;1.60;;;26.70;99.90;;;;;;1046969;28;20039;-72
2022/08/26 01:13:10;;;;;;;2.78;1.70;;;26.60;99.90;;;;;;1048471;28;20082;-74
2022/08/26 01:13:41;;;;;;;4.63;2.45;;;26.60;99.90;;;;;;1051058;28;20068;-73
2022/08/26 01:14:12;;;;;;;2.45;1.67;;;26.60;99.90;;;;;;1044226;28;20096;-73
2022/08/26 01:14:44;;;;;;;3.88;1.77;;;26.60;99.90;;;;;;1047401;28;20103;-73
2022/08/26 01:15:21;;;;;;;2.20;1.73;;;26.60;99.90;;;;;;1039449;28;20041;-73
2022/08/26 01:15:58;;;;;;;2.30;1.55;;;26.60;99.90;;;;;;1044406;28;20021;-72
2022/08/26 01:16:30;;;;;;;2.40;1.67;;;26.60;99.90;;;;;;1044465;28;20028;-73
2022/08/26 01:17:03;;;;;;;3.10;1.67;;;26.60;99.90;;;;;;1045383;28;20028;-74
2022/08/26 01:17:33;;;;;;;2.55;1.67;;;26.60;99.90;;;;;;1050755;28;20430;-73
2022/08/26 01:18:04;;;;;;;4.00;1.80;;;26.60;99.90;;;;;;1047736;28;20475;-73
2022/08/26 01:18:35;;;;;;;3.42;1.90;;;26.60;99.90;;;;;;1051757;28;20439;-70
2022/08/26 01:19:18;;;;;;;3.07;1.87;;;26.60;99.90;;;;;;1050917;28;20521;-71
2022/08/26 01:20:01;;;;;;;2.30;1.88;;;26.60;99.90;;;;;;1048230;28;20708;-75
2022/08/26 01:21:07;;;;;;;2.70;1.55;;;26.50;99.90;;;;;;1048810;28;20119;-75
2022/08/26 01:21:46;;;;;;;2.10;1.55;;;26.50;99.90;;;;;;1051084;28;20447;-73
2022/08/26 01:22:28;;;;;;;3.30;1.70;;;26.50;99.90;;;;;;1051415;28;20515;-73
2022/08/26 01:23:03;;;;;;;3.03;1.90;;;26.50;99.90;;;;;;1051485;28;20149;-73
2022/08/26 01:23:38;;;;;;;2.53;1.42;;;26.50;99.90;;;;;;1051014;28;20046;-72
2022/08/26 01:24:10;;;;;;;2.45;1.55;;;26.50;99.90;;;;;;1047404;28;20104;-73
2022/08/26 01:24:41;;;;;;;4.38;2.05;;;26.50;99.90;;;;;;1049933;28;20108;-73
2022/08/26 01:25:13;;;;;;;1.85;1.50;;;26.50;99.90;;;;;;1051229;28;20027;-74
2022/08/26 01:25:51;;;;;;;2.75;1.58;;;26.50;99.90;;;;;;1051224;28;20051;-73
2022/08/26 01:26:26;;;;;;;3.17;2.08;;;26.50;99.90;;;;;;1047209;28;20016;-73
2022/08/26 01:27:02;;;;;;;2.28;1.60;;;26.50;99.90;;;;;;1046873;28;20357;-74
2022/08/26 01:27:35;;;;;;;3.67;1.73;;;26.50;99.90;;;;;;1041295;28;20018;-73
2022/08/26 01:28:10;;;;;;;3.53;1.52;;;26.50;99.90;;;;;;1044947;28;20052;-73
2022/08/26 01:28:42;;;;;;;4.05;1.80;;;26.60;99.90;;;;;;1050513;28;20047;-73
2022/08/26 01:29:16;;;;;;;2.20;1.45;;;26.50;99.90;;;;;;1047220;28;20108;-73
2022/08/26 01:29:48;;;;;;;2.88;1.67;;;26.50;99.90;;;;;;1047051;28;20017;-72
2022/08/26 01:30:20;;;;;;;2.35;1.30;;;26.50;99.90;;;;;;1042745;28;20017;-73
2022/08/26 01:30:52;;;;;;;2.55;1.50;;;26.50;99.90;;;;;;1042597;28;20021;-74
2022/08/26 01:31:26;;;;;;;3.17;1.52;;;26.50;99.90;;;;;;1043072;28;20063;-72
2022/08/26 01:31:57;;;;;;;2.15;1.40;;;26.50;99.90;;;;;;1043883;28;20471;-74
2022/08/26 01:32:30;;;;;;;2.58;1.42;;;26.50;99.90;;;;;;1050485;28;20057;-73
2022/08/26 01:33:04;;;;;;;2.95;1.83;;;26.50;99.90;;;;;;1051668;28;20186;-74
2022/08/26 01:33:44;;;;;;;3.65;1.30;;;26.50;99.90;;;;;;1051230;28;20035;-74
2022/08/26 01:34:25;;;;;;;3.97;1.80;;;26.50;99.90;;;;;;1051040;28;20597;-73
2022/08/26 01:34:56;;;;;;;2.40;1.55;;;26.50;99.90;;;;;;1047164;28;20573;-74
2022/08/26 01:35:26;;;;;;;3.63;1.17;;;26.50;99.90;;;;;;1050098;28;20399;-74
2022/08/26 01:35:57;;;;;;;2.37;1.40;;;26.50;99.90;;;;;;1050136;28;20027;-73
2022/08/26 01:36:29;;;;;;;5.77;1.80;;;26.50;99.90;;;;;;1047270;28;20054;-74
2022/08/26 01:37:12;;;;;;;3.08;1.52;;;26.50;99.90;;;;;;1047468;28;20024;-72
2022/08/26 01:37:44;;;;;;;3.15;1.50;;;26.50;99.90;;;;;;1047385;28;20047;-73
2022/08/26 01:38:15;;;;;;;3.25;1.95;;;26.50;99.90;;;;;;1046968;28;20195;-73
2022/08/26 01:38:46;;;;;;;2.80;1.42;;;26.50;99.90;;;;;;1047876;28;20372;-73
2022/08/26 01:39:17;;;;;;;2.60;1.40;;;26.50;99.90;;;;;;1048037;28;20456;-73
2022/08/26 01:39:50;;;;;;;2.15;1.30;;;26.50;99.90;;;;;;1051021;28;20056;-73
2022/08/26 01:40:26;;;;;;;3.50;1.80;;;26.50;99.90;;;;;;1051605;28;20115;-73
2022/08/26 01:40:57;;;;;;;2.20;1.25;;;26.50;99.90;;;;;;1047086;28;20025;-74
2022/08/26 01:41:27;;;;;;;3.30;1.70;;;26.50;99.90;;;;;;1046892;28;20099;-73
2022/08/26 01:42:00;;;;;;;2.47;1.40;;;26.50;99.90;;;;;;1047373;28;20107;-73
2022/08/26 01:42:31;;;;;;;3.35;1.60;;;26.50;99.90;;;;;;1048967;28;20023;-73
2022/08/26 01:43:05;;;;;;;2.37;1.30;;;26.50;99.90;;;;;;1047198;28;20020;-72
2022/08/26 01:43:37;;;;;;;1.70;1.25;;;26.50;99.90;;;;;;1046590;28;20119;-74
2022/08/26 01:44:12;;;;;;;2.70;1.52;;;26.50;99.90;;;;;;1054543;28;20110;-74
2022/08/26 01:44:49;;;;;;;2.45;1.45;;;26.50;99.90;;;;;;1055611;28;20040;-75
2022/08/26 01:45:26;;;;;;;3.50;1.33;;;26.50;99.90;;;;;;1050994;28;20046;-73
2022/08/26 01:45:58;;;;;;;4.05;1.40;;;26.40;99.90;;;;;;1050811;28;20561;-74
2022/08/26 01:46:30;;;;;;;4.32;2.10;;;26.40;99.90;;;;;;1047202;28;20017;-73
2022/08/26 01:47:01;;;;;;;2.55;1.58;;;26.40;99.90;;;;;;1047175;28;20055;-74
2022/08/26 01:47:35;;;;;;;2.78;1.42;;;26.40;99.90;;;;;;1046705;28;20021;-73
2022/08/26 01:48:10;;;;;;;3.50;1.60;;;26.40;99.90;;;;;;1047225;28;20048;-74
2022/08/26 01:48:43;;;;;;;1.80;1.25;;;26.40;99.90;;;;;;1047229;28;20171;-73
2022/08/26 01:49:15;;;;;;;4.18;1.92;;;26.40;99.90;;;;;;1045076;28;20025;-74
2022/08/26 01:49:48;;;;;;;2.20;1.30;;;26.40;99.90;;;;;;1046928;28;20060;-73
2022/08/26 01:50:27;;;;;;;4.93;1.70;;;26.40;99.90;;;;;;1042852;28;20025;-72
2022/08/26 01:50:59;;;;;;;1.58;1.10;;;26.40;99.90;;;;;;1040056;28;20067;-73
2022/08/26 01:51:32;;;;;;;3.45;1.52;;;26.40;99.90;;;;;;1044849;28;20056;-72
2022/08/26 01:52:06;;;;;;;2.72;1.42;;;26.40;99.90;;;;;;1048769;28;20031;-74
2022/08/26 01:52:40;;;;;;;2.17;1.35;;;26.40;99.90;;;;;;1050393;28;20123;-73
2022/08/26 01:53:13;;;;;;;3.00;1.20;;;26.40;99.90;;;;;;1047185;28;20016;-75
2022/08/26 01:53:45;;;;;;;1.75;1.27;;;26.40;99.90;;;;;;1047111;28;20021;-73
2022/08/26 01:54:15;;;;;;;1.80;1.05;;;26.40;99.90;;;;;;1046413;28;20025;-73
2022/08/26 01:54:46;;;;;;;2.90;1.50;;;26.40;99.90;;;;;;1046038;28;20132;-73
2022/08/26 01:55:19;;;;;;;3.03;1.47;;;26.40;99.90;;;;;;1042956;28;20021;-74
2022/08/26 01:55:53;;;;;;;2.35;1.10;;;26.40;99.90;;;;;;1047222;28;20735;-74
2022/08/26 01:56:24;;;;;;;3.90;1.58;;;26.40;99.90;;;;;;1043796;28;20013;-73
2022/08/26 01:56:55;;;;;;;3.57;1.60;;;26.40;99.90;;;;;;1047240;28;20078;-73
2022/08/26 01:57:27;;;;;;;4.30;1.50;;;26.40;99.90;;;;;;1049985;28;20020;-73
2022/08/26 01:58:00;;;;;;;1.67;1.20;;;26.40;99.90;;;;;;1048230;28;20282;-73
2022/08/26 01:58:52;;;;;;;2.28;1.55;;;26.40;99.90;;;;;;1042890;28;20025;-73
2022/08/26 01:59:24;;;;;;;1.83;1.38;;;26.40;99.90;;;;;;1046268;28;20052;-74
2022/08/26 02:00:00;;;;;;;3.30;1.90;;;26.40;99.90;;;;;;1051244;28;20116;-73
2022/08/26 02:00:31;;;;;;;3.58;1.40;;;26.40;99.90;;;;;;1055102;28;20753;-74
2022/08/26 02:01:03;;;;;;;2.63;1.25;;;26.40;99.90;;;;;;1055630;28;20498;-73
2022/08/26 02:01:33;;;;;;;1.95;1.30;;;26.40;99.90;;;;;;1053291;28;20020;-73
2022/08/26 02:02:04;;;;;;;2.33;1.20;;;26.30;99.90;;;;;;1048038;28;20020;-73
2022/08/26 02:02:35;;;;;;;2.17;0.90;;;26.40;99.90;;;;;;1051206;28;20020;-73
2022/08/26 02:03:15;;;;;;;1.42;1.10;;;26.40;99.90;;;;;;1048076;28;20024;-73
2022/08/26 02:04:13;;;;;;;2.03;1.20;;;26.30;99.90;;;;;;1047738;28;20036;-73
2022/08/26 02:04:50;;;;;;;3.10;1.23;;;26.30;99.90;;;;;;1048394;28;20529;-74
2022/08/26 02:05:21;;;;;;;1.98;1.40;;;26.30;99.90;;;;;;1047086;28;20029;-73
2022/08/26 02:05:55;;;;;;;3.00;1.30;;;26.30;99.90;;;;;;1047157;28;20115;-73
2022/08/26 02:06:26;;;;;;;2.45;1.30;;;26.30;99.90;;;;;;1044417;28;20029;-73
2022/08/26 02:06:57;;;;;;;1.87;1.20;;;26.30;99.90;;;;;;1047161;28;20028;-73
2022/08/26 02:07:28;;;;;;;1.73;1.23;;;26.30;99.90;;;;;;1050899;28;20055;-72
2022/08/26 02:07:59;;;;;;;2.22;1.27;;;26.30;99.90;;;;;;1049688;28;20081;-73
2022/08/26 02:08:51;;;;;;;2.63;1.30;;;26.30;99.90;;;;;;1050955;28;20020;-73
2022/08/26 02:09:23;;;;;;;1.55;0.93;;;26.30;99.90;;;;;;1047259;28;20553;-72
2022/08/26 02:09:54;;;;;;;2.88;1.40;;;26.30;99.90;;;;;;1047526;28;20024;-74
2022/08/26 02:10:24;;;;;;;2.73;1.20;;;26.30;99.90;;;;;;1047870;28;20029;-73
2022/08/26 02:10:55;;;;;;;2.53;1.37;;;26.30;99.90;;;;;;1051486;28;20023;-73
2022/08/26 02:11:26;;;;;;;1.43;0.97;;;26.30;99.90;;;;;;1051153;28;20043;-74
2022/08/26 02:12:00;;;;;;;3.27;1.17;;;26.30;99.90;;;;;;1051047;28;20024;-73
2022/08/26 02:12:31;;;;;;;1.92;1.00;;;26.30;99.90;;;;;;1047907;28;20476;-73
2022/08/26 02:13:02;;;;;;;2.23;1.10;;;26.30;99.90;;;;;;1047005;28;20013;-73
2022/08/26 02:13:37;;;;;;;3.58;1.45;;;26.30;99.90;;;;;;1047343;28;20013;-73
2022/08/26 02:14:16;;;;;;;2.30;1.10;;;26.30;99.90;;;;;;1050086;28;20044;-73
2022/08/26 02:14:52;;;;;;;2.63;1.30;;;26.30;99.90;;;;;;1047776;28;20104;-73
2022/08/26 02:15:22;;;;;;;4.07;1.35;;;26.30;99.90;;;;;;1046746;28;20800;-74
2022/08/26 02:15:54;;;;;;;3.23;1.53;;;26.30;99.90;;;;;;1046133;28;20540;-76
2022/08/26 02:16:27;;;;;;;4.97;1.80;;;26.40;99.90;;;;;;1042633;28;20456;-73
2022/08/26 02:16:59;;;;;;;2.20;0.98;;;26.30;99.90;;;;;;1043331;28;20013;-73
2022/08/26 02:17:37;;;;;;;2.97;1.50;;;26.30;99.90;;;;;;1046647;28;20008;-73
2022/08/26 02:18:09;;;;;;;;;;;26.40;99.90;;;;;;1047362;28;20001;-72
2022/08/26 02:18:41;;;;;;;2.65;1.30;;;26.30;99.90;;;;;;1046897;28;19962;-74
2022/08/26 02:19:14;;;;;;;2.08;1.33;;;26.30;99.90;;;;;;1050491;28;20056;-74
2022/08/26 02:19:48;;;;;;;1.52;1.10;;;26.40;99.90;;;;;;1051065;28;20012;-74
2022/08/26 02:20:19;;;;;;;2.42;1.20;;;26.30;99.90;;;;;;1046535;28;20008;-72
2022/08/26 02:20:52;;;;;;;2.15;1.15;;;26.30;99.90;;;;;;1050033;28;20489;-74
2022/08/26 02:21:23;;;;;;;2.15;1.45;;;26.30;99.90;;;;;;1046546;28;20104;-73
2022/08/26 02:21:57;;;;;;;1.73;1.13;;;26.30;99.90;;;;;;1046625;28;20028;-73
2022/08/26 02:22:29;;;;;;;1.52;1.08;;;26.30;99.90;;;;;;1047457;28;20020;-74
2022/08/26 02:23:00;;;;;;;2.40;1.23;;;26.80;99.90;;;;;;1050814;28;20013;-74
2022/08/26 02:23:31;;;;;;;2.83;1.20;;;26.30;99.90;;;;;;1050026;28;20016;-71
2022/08/26 02:24:14;;;;;;;4.47;1.33;;;26.30;99.90;;;;;;1050996;28;20057;-73
2022/08/26 02:25:19;;;;;;;2.05;1.13;;;26.30;99.90;;;;;;1050743;28;20066;-72
2022/08/26 02:25:53;;;;;;;2.83;1.30;;;26.30;99.90;;;;;;1043116;28;20020;-73
2022/08/26 02:26:24;;;;;;;3.42;1.30;;;26.30;99.90;;;;;;1051104;28;20066;-73
2022/08/26 02:26:56;;;;;;;2.17;1.20;;;26.30;99.90;;;;;;1043189;28;20024;-73
2022/08/26 02:27:31;;;;;;;2.58;1.40;;;26.30;99.90;;;;;;1046656;28;20019;-73
2022/08/26 02:28:02;;;;;;;3.03;1.63;;;26.30;99.90;;;;;;1051055;28;20073;-73
2022/08/26 02:28:37;;;;;;;1.90;1.13;;;26.30;99.90;;;;;;1050842;28;20070;-73
2022/08/26 02:29:16;;;;;;;1.95;1.10;;;26.30;99.90;;;;;;1047236;28;20070;-74
2022/08/26 02:29:57;;;;;;;1.58;1.20;;;26.30;99.90;;;;;;1042491;28;20491;-73
2022/08/26 02:30:32;;;;;;;1.75;1.05;;;26.30;99.90;;;;;;1039380;28;20708;-75
2022/08/26 02:31:02;;;;;;;1.40;1.00;;;26.30;99.90;;;;;;1046104;28;20020;-72
2022/08/26 02:31:33;;;;;;;3.17;1.10;;;26.30;99.90;;;;;;1049050;28;20020;-73
2022/08/26 02:32:07;;;;;;;3.53;1.33;;;26.30;99.90;;;;;;1051193;28;20020;-72
2022/08/26 02:32:39;;;;;;;2.20;1.00;;;26.30;99.90;;;;;;1050794;28;20027;-74
2022/08/26 02:33:10;;;;;;;2.05;1.30;;;26.30;99.90;;;;;;1055320;28;20027;-73
2022/08/26 02:33:41;;;;;;;3.60;1.20;;;26.30;99.90;;;;;;1051122;28;20058;-73
2022/08/26 02:34:14;;;;;;;2.33;1.50;;;26.30;99.90;;;;;;1043855;28;20017;-73
2022/08/26 02:34:45;;;;;;;2.20;1.42;;;26.30;99.90;;;;;;1046692;28;20058;-73
2022/08/26 02:35:17;;;;;;;3.33;1.40;;;26.30;99.90;;;;;;1043225;28;20029;-74
2022/08/26 02:35:48;;;;;;;1.75;1.25;;;26.30;99.90;;;;;;1045980;28;20652;-73
2022/08/26 02:36:20;;;;;;;1.90;1.00;;;26.30;99.90;;;;;;1043016;28;20648;-73
2022/08/26 02:36:51;;;;;;;2.42;1.13;;;26.30;99.90;;;;;;1046759;28;20017;-73
2022/08/26 02:37:22;;;;;;;1.47;0.90;;;26.30;99.90;;;;;;1045710;28;20040;-73
2022/08/26 02:37:52;;;;;;;1.80;0.90;;;26.30;99.90;;;;;;1050404;28;20012;-73
2022/08/26 02:38:23;;;;;;;3.60;1.13;;;26.30;99.90;;;;;;1050878;28;20031;-73
2022/08/26 02:38:54;;;;;;;1.13;0.87;;;26.30;99.90;;;;;;1050822;28;20028;-75
2022/08/26 02:39:24;;;;;;;2.43;1.23;;;26.30;99.90;;;;;;1050844;28;20099;-74
2022/08/26 02:39:55;;;;;;;1.27;0.70;;;26.30;99.90;;;;;;1050910;28;20016;-73
2022/08/26 02:40:32;;;;;;;2.47;1.23;;;26.30;99.90;;;;;;1047248;28;20021;-74
2022/08/26 02:41:03;;;;;;;3.75;1.38;;;26.30;99.90;;;;;;1050324;28;20012;-73
2022/08/26 02:41:34;;;;;;;3.07;1.37;;;26.30;99.90;;;;;;1046429;28;20021;-75
2022/08/26 02:42:05;;;;;;;1.98;1.10;;;26.20;99.90;;;;;;1043662;28;20024;-73
2022/08/26 02:42:36;;;;;;;1.58;1.10;;;26.20;99.90;;;;;;1050606;28;20131;-73
2022/08/26 02:43:08;;;;;;;3.08;1.30;;;26.20;99.90;;;;;;1051073;28;20016;-73
2022/08/26 02:43:38;;;;;;;1.52;1.10;;;26.20;99.90;;;;;;1050630;28;20040;-73
2022/08/26 02:44:10;;;;;;;5.67;1.20;;;26.20;99.90;;;;;;1049603;28;20107;-73
2022/08/26 02:44:40;;;;;;;2.38;1.05;;;26.20;99.90;;;;;;1046514;28;20063;-72
2022/08/26 02:45:11;;;;;;;2.40;1.20;;;26.20;99.90;;;;;;1046663;28;20079;-73
2022/08/26 02:45:42;;;;;;;1.55;1.00;;;26.20;99.90;;;;;;1047105;28;20031;-74
2022/08/26 02:46:12;;;;;;;3.50;1.10;;;26.30;99.90;;;;;;1046705;28;20025;-72
2022/08/26 02:46:44;;;;;;;2.20;1.10;;;26.20;99.90;;;;;;1042729;28;20025;-74
2022/08/26 02:47:15;;;;;;;2.78;1.13;;;26.20;99.90;;;;;;1044225;28;20013;-73
2022/08/26 02:47:46;;;;;;;1.43;0.90;;;26.20;99.90;;;;;;1049385;28;20028;-74
2022/08/26 02:48:20;;;;;;;1.85;1.08;;;26.20;99.90;;;;;;1050941;28;20024;-74
2022/08/26 02:48:50;;;;;;;2.55;1.05;;;26.20;99.90;;;;;;1051171;28;20862;-72
2022/08/26 02:49:22;;;;;;;2.57;1.10;;;26.20;99.90;;;;;;1049166;28;20113;-73
2022/08/26 02:49:52;;;;;;;2.30;1.02;;;26.20;99.90;;;;;;1046413;28;20568;-74
2022/08/26 02:50:25;;;;;;;3.17;1.27;;;26.20;99.90;;;;;;1047016;28;20054;-73
2022/08/26 02:50:57;;;;;;;2.08;1.10;;;26.20;99.90;;;;;;1049655;28;20428;-73
2022/08/26 02:51:28;;;;;;;3.72;1.20;;;26.20;99.90;;;;;;1046753;28;20032;-74
2022/08/26 02:51:59;;;;;;;3.27;1.10;;;26.20;99.90;;;;;;1046381;28;20032;-74
2022/08/26 02:52:30;;;;;;;2.83;1.10;;;26.20;99.90;;;;;;1050753;28;20059;-73